Time;durP1;ratioP1;P1;durP2;ratioP2;P2;SDS_P1;SDS_P2;PMS_P1;PMS_P2;Temp;Humidity;BMP_temperature;BMP_pressure;BME280_temperature;BME280_humidity;BME280_pressure;Samples;Min_cycle;Max_cycle;Signal;HPM_P1;HPM_P2
2023/12/11 15:26:30;;;;;;;38.20;20.97;;;;;;;;;;5581113;22;1421456;-56
2023/12/11 15:29:02;;;;;;;37.38;22.23;;;;;;;;;;5057986;23;20028;-55
2023/12/11 15:31:30;;;;;;;45.45;25.83;;;;;;;;;;5046840;28;20120;-54
2023/12/11 15:33:58;;;;;;;46.08;26.30;;;;;;;;;;5013436;28;20378;-55
2023/12/11 15:36:25;;;;;;;48.72;29.65;;;;;;;;;;5047537;28;20147;-56
2023/12/11 15:38:53;;;;;;;51.70;27.73;;;;;;;;;;5040816;28;20529;-54
2023/12/11 15:41:21;;;;;;;51.63;29.92;;;;;;;;;;5028992;28;20142;-56
2023/12/11 15:43:49;;;;;;;52.17;30.13;;;;;;;;;;5047578;28;20819;-55
2023/12/11 15:46:17;;;;;;;48.47;28.40;;;;;;;;;;5046626;28;20043;-55
2023/12/11 15:48:45;;;;;;;52.90;27.85;;;;;;;;;;5046954;28;20051;-55
2023/12/11 15:51:15;;;;;;;51.75;26.67;;;;;;;;;;5045923;28;20441;-55
2023/12/11 15:53:47;;;;;;;51.50;27.60;;;;;;;;;;5027017;28;20045;-55
2023/12/11 15:56:15;;;;;;;50.30;28.70;;;;;;;;;;5047272;28;20068;-56
2023/12/11 15:58:44;;;;;;;50.38;28.20;;;;;;;;;;5029324;28;20051;-56
2023/12/11 16:01:13;;;;;;;53.80;29.02;;;;;;;;;;5046503;28;20134;-56
2023/12/11 16:03:41;;;;;;;52.80;28.60;;;;;;;;;;5046167;28;20047;-56
2023/12/11 16:06:09;;;;;;;50.40;29.48;;;;;;;;;;5029144;28;20102;-56
2023/12/11 16:08:37;;;;;;;50.13;29.70;;;;;;;;;;5028883;28;20108;-56
2023/12/11 16:11:05;;;;;;;49.80;28.15;;;;;;;;;;5046043;28;20048;-55
2023/12/11 16:13:33;;;;;;;53.42;29.38;;;;;;;;;;5044358;28;20126;-55
2023/12/11 16:16:02;;;;;;;56.35;30.38;;;;;;;;;;5027424;28;20070;-55
2023/12/11 16:18:30;;;;;;;58.83;30.42;;;;;;;;;;5026543;28;20063;-54
2023/12/11 16:20:58;;;;;;;56.25;31.70;;;;;;;;;;5046560;28;20510;-55
2023/12/11 16:23:26;;;;;;;60.28;32.45;;;;;;;;;;5046850;28;20583;-54
2023/12/11 16:25:53;;;;;;;53.75;31.83;;;;;;;;;;5026711;28;20048;-55
2023/12/11 16:28:31;;;;;;;65.28;35.05;;;;;;;;;;5046723;28;20045;-57
2023/12/11 16:30:59;;;;;;;59.97;33.95;;;;;;;;;;5046126;28;20044;-54
2023/12/11 16:33:27;;;;;;;62.90;36.33;;;;;;;;;;5046838;28;20068;-55
2023/12/11 16:35:55;;;;;;;76.03;39.55;;;;;;;;;;5046771;28;20029;-54
2023/12/11 16:38:23;;;;;;;79.38;43.47;;;;;;;;;;5051183;28;20565;-55
2023/12/11 16:40:50;;;;;;;76.43;40.58;;;;;;;;;;5050362;28;20044;-54
2023/12/11 16:43:18;;;;;;;66.45;36.63;;;;;;;;;;5050422;28;20041;-55
2023/12/11 16:45:45;;;;;;;64.53;36.10;;;;;;;;;;5029148;28;20598;-55
2023/12/11 16:48:13;;;;;;;68.75;36.92;;;;;;;;;;5045209;28;20045;-54
2023/12/11 16:50:44;;;;;;;65.30;34.97;;;;;;;;;;5049475;28;20120;-54
2023/12/11 16:53:12;;;;;;;63.67;34.08;;;;;;;;;;5049058;28;20041;-55
2023/12/11 16:55:40;;;;;;;62.28;32.47;;;;;;;;;;5050047;28;20037;-55
2023/12/11 16:58:07;;;;;;;55.20;29.77;;;;;;;;;;5032238;28;20049;-55
2023/12/11 17:00:35;;;;;;;60.35;32.67;;;;;;;;;;5050308;28;20110;-54
2023/12/11 17:03:03;;;;;;;57.50;33.70;;;;;;;;;;5050344;28;20049;-56
2023/12/11 17:05:30;;;;;;;58.10;31.17;;;;;;;;;;5049780;28;20048;-55
2023/12/11 17:08:01;;;;;;;54.65;30.42;;;;;;;;;;5050321;28;20064;-55
2023/12/11 17:10:28;;;;;;;56.80;28.52;;;;;;;;;;5050332;28;20033;-53
2023/12/11 17:12:56;;;;;;;52.22;26.85;;;;;;;;;;5031930;28;20036;-54
2023/12/11 17:15:24;;;;;;;49.85;26.70;;;;;;;;;;5049863;28;20041;-55
2023/12/11 17:17:51;;;;;;;46.53;24.42;;;;;;;;;;5049714;28;20068;-55
2023/12/11 17:20:19;;;;;;;48.38;24.80;;;;;;;;;;5049150;28;20052;-55
2023/12/11 17:22:47;;;;;;;44.72;23.98;;;;;;;;;;5041416;28;20056;-54
2023/12/11 17:25:14;;;;;;;49.58;27.58;;;;;;;;;;5049860;28;20832;-54
2023/12/11 17:27:42;;;;;;;50.72;28.90;;;;;;;;;;5049995;28;20045;-54
2023/12/11 17:30:10;;;;;;;66.72;36.63;;;;;;;;;;5047531;28;20063;-54
2023/12/11 17:32:39;;;;;;;63.45;36.70;;;;;;;;;;5049476;28;20052;-55
2023/12/11 17:35:07;;;;;;;70.72;38.78;;;;;;;;;;5032148;28;20151;-55
2023/12/11 17:37:34;;;;;;;97.72;49.13;;;;;;;;;;5049362;28;20047;-55
2023/12/11 17:40:02;;;;;;;93.40;47.00;;;;;;;;;;5049960;28;20128;-55
2023/12/11 17:42:30;;;;;;;91.78;46.72;;;;;;;;;;5048617;28;20127;-56
2023/12/11 17:44:58;;;;;;;98.95;47.65;;;;;;;;;;5046900;28;20040;-56
2023/12/11 17:47:26;;;;;;;96.82;49.10;;;;;;;;;;5037100;28;20413;-56
2023/12/11 17:49:54;;;;;;;155.30;69.28;;;;;;;;;;5048786;28;20048;-56
2023/12/11 17:52:21;;;;;;;182.55;82.57;;;;;;;;;;5029295;28;20048;-55
2023/12/11 17:54:49;;;;;;;182.63;89.65;;;;;;;;;;5041609;28;20044;-55
2023/12/11 17:57:17;;;;;;;215.80;103.78;;;;;;;;;;5048926;28;20715;-55
2023/12/11 17:59:44;;;;;;;181.18;90.53;;;;;;;;;;5049329;28;20072;-56
2023/12/11 18:02:12;;;;;;;181.52;91.70;;;;;;;;;;5048844;28;20076;-55
2023/12/11 18:04:39;;;;;;;187.80;92.40;;;;;;;;;;5048803;28;20064;-56
2023/12/11 18:07:07;;;;;;;165.15;82.63;;;;;;;;;;5048762;28;20124;-55
2023/12/11 18:09:36;;;;;;;150.43;76.97;;;;;;;;;;5031128;28;20052;-54
2023/12/11 18:12:04;;;;;;;156.70;80.32;;;;;;;;;;5048560;28;20041;-56
2023/12/11 18:14:32;;;;;;;168.23;87.60;;;;;;;;;;5049241;28;20043;-55
2023/12/11 18:16:59;;;;;;;177.52;85.03;;;;;;;;;;5048181;28;20056;-55
2023/12/11 18:19:27;;;;;;;167.95;84.72;;;;;;;;;;5048766;28;20675;-55
2023/12/11 18:21:55;;;;;;;168.57;83.03;;;;;;;;;;5048648;28;20456;-54
2023/12/11 18:24:26;;;;;;;171.93;87.03;;;;;;;;;;5048152;28;20091;-54
2023/12/11 18:26:54;;;;;;;173.93;84.65;;;;;;;;;;5048774;28;20071;-54
2023/12/11 18:29:21;;;;;;;177.07;86.25;;;;;;;;;;5047886;28;20136;-54
2023/12/11 18:31:53;;;;;;;197.43;100.05;;;;;;;;;;5048692;28;20063;-58
2023/12/11 18:34:21;;;;;;;322.52;143.50;;;;;;;;;;5030114;28;20044;-54
2023/12/11 18:36:49;;;;;;;244.00;120.65;;;;;;;;;;5038917;28;20502;-54
2023/12/11 18:39:16;;;;;;;209.98;108.18;;;;;;;;;;5048144;28;20037;-54
2023/12/11 18:41:44;;;;;;;200.20;107.38;;;;;;;;;;5046527;28;20049;-54
2023/12/11 18:44:11;;;;;;;192.23;103.65;;;;;;;;;;5046589;28;20079;-54
2023/12/11 18:46:39;;;;;;;193.35;103.80;;;;;;;;;;5047576;28;20063;-55
2023/12/11 18:49:08;;;;;;;183.23;99.05;;;;;;;;;;5047487;28;20068;-56
2023/12/11 18:51:36;;;;;;;190.05;98.30;;;;;;;;;;5047095;28;20068;-56
2023/12/11 18:54:04;;;;;;;193.73;101.85;;;;;;;;;;5047540;28;20755;-57
2023/12/11 18:56:33;;;;;;;191.50;97.40;;;;;;;;;;5026115;28;20037;-55
2023/12/11 18:59:00;;;;;;;181.73;94.43;;;;;;;;;;5041741;28;20059;-56
2023/12/11 19:01:28;;;;;;;167.02;88.50;;;;;;;;;;5045881;28;20048;-55
2023/12/11 19:03:55;;;;;;;158.07;83.60;;;;;;;;;;5046941;28;20077;-55
2023/12/11 19:06:23;;;;;;;160.45;86.10;;;;;;;;;;5046611;28;20037;-55
2023/12/11 19:08:51;;;;;;;157.65;84.78;;;;;;;;;;5039084;28;20452;-54
2023/12/11 19:11:18;;;;;;;165.07;87.22;;;;;;;;;;5046055;28;20041;-55
2023/12/11 19:13:46;;;;;;;175.60;90.88;;;;;;;;;;5046085;28;20056;-55
2023/12/11 19:16:14;;;;;;;176.18;91.20;;;;;;;;;;5046272;28;20045;-53
2023/12/11 19:18:42;;;;;;;166.30;88.63;;;;;;;;;;5044830;28;20033;-56
2023/12/11 19:21:09;;;;;;;167.05;88.88;;;;;;;;;;5044847;28;20045;-57
2023/12/11 19:23:37;;;;;;;172.40;91.78;;;;;;;;;;5025703;28;20044;-57
2023/12/11 19:26:05;;;;;;;176.45;96.88;;;;;;;;;;5025470;28;20625;-56
2023/12/11 19:28:32;;;;;;;217.68;112.18;;;;;;;;;;5046041;28;20373;-56
2023/12/11 19:31:00;;;;;;;235.40;122.85;;;;;;;;;;5046321;28;20049;-56
2023/12/11 19:33:28;;;;;;;223.38;119.93;;;;;;;;;;5046492;28;20037;-56
2023/12/11 19:35:56;;;;;;;229.70;124.00;;;;;;;;;;5039429;28;20033;-56
2023/12/11 19:38:24;;;;;;;235.52;125.78;;;;;;;;;;5024317;28;20059;-55
2023/12/11 19:40:51;;;;;;;232.50;121.55;;;;;;;;;;5040854;28;20057;-57
2023/12/11 19:43:19;;;;;;;251.20;123.85;;;;;;;;;;5040087;28;20094;-57
2023/12/11 19:45:47;;;;;;;255.65;120.30;;;;;;;;;;5047308;28;20557;-56
2023/12/11 19:48:16;;;;;;;250.35;113.95;;;;;;;;;;5047472;28;20045;-59
2023/12/11 19:50:43;;;;;;;258.02;107.22;;;;;;;;;;5046850;28;20067;-55
2023/12/11 19:53:11;;;;;;;272.58;108.43;;;;;;;;;;5038699;28;20621;-57
2023/12/11 19:55:39;;;;;;;296.38;110.40;;;;;;;;;;5046714;28;20037;-56
2023/12/11 19:58:08;;;;;;;287.20;108.53;;;;;;;;;;5046900;28;20053;-55
2023/12/11 20:00:36;;;;;;;295.60;110.68;;;;;;;;;;5046308;28;20037;-55
2023/12/11 20:03:04;;;;;;;262.58;109.28;;;;;;;;;;5026809;28;20040;-55
2023/12/11 20:05:32;;;;;;;293.27;112.88;;;;;;;;;;5046400;28;20037;-55
2023/12/11 20:07:59;;;;;;;346.73;115.88;;;;;;;;;;5047133;28;20049;-56
2023/12/11 20:10:27;;;;;;;329.35;116.13;;;;;;;;;;5046445;28;20055;-57
2023/12/11 20:12:54;;;;;;;322.65;116.60;;;;;;;;;;5045974;28;20215;-56
2023/12/11 20:15:22;;;;;;;366.30;122.40;;;;;;;;;;5046335;28;20043;-56
2023/12/11 20:17:51;;;;;;;287.27;114.50;;;;;;;;;;5045176;28;20037;-54
2023/12/11 20:20:19;;;;;;;322.45;113.70;;;;;;;;;;5003848;28;20045;-54
2023/12/11 20:22:46;;;;;;;280.35;109.70;;;;;;;;;;5045798;28;20036;-56
2023/12/11 20:25:14;;;;;;;291.20;109.10;;;;;;;;;;5045850;28;20047;-55
2023/12/11 20:27:42;;;;;;;265.55;102.28;;;;;;;;;;5045427;28;20041;-56
2023/12/11 20:30:10;;;;;;;273.50;105.88;;;;;;;;;;5045264;28;20114;-55
2023/12/11 20:32:37;;;;;;;253.40;106.10;;;;;;;;;;5024673;28;20389;-55
2023/12/11 20:35:05;;;;;;;284.80;111.78;;;;;;;;;;5035763;28;20041;-55
2023/12/11 20:37:33;;;;;;;262.25;103.75;;;;;;;;;;5045338;28;20481;-55
2023/12/11 20:40:02;;;;;;;267.50;105.32;;;;;;;;;;5043420;28;20040;-56
2023/12/11 20:42:30;;;;;;;262.73;105.22;;;;;;;;;;5046176;28;20429;-56
2023/12/11 20:44:58;;;;;;;253.15;99.95;;;;;;;;;;5045901;28;20111;-56
2023/12/11 20:47:25;;;;;;;231.70;96.70;;;;;;;;;;5045043;28;20037;-55
2023/12/11 20:49:53;;;;;;;239.18;94.85;;;;;;;;;;5045520;28;20033;-56
2023/12/11 20:52:21;;;;;;;225.68;93.80;;;;;;;;;;5046481;28;20048;-56
2023/12/11 20:54:49;;;;;;;225.35;91.97;;;;;;;;;;5027961;28;20045;-56
2023/12/11 20:57:16;;;;;;;215.65;88.20;;;;;;;;;;5046125;28;20041;-56
2023/12/11 20:59:44;;;;;;;199.02;88.90;;;;;;;;;;5045781;28;20158;-54
2023/12/11 21:02:11;;;;;;;210.50;88.75;;;;;;;;;;5037792;28;20042;-56
2023/12/11 21:04:39;;;;;;;204.20;89.32;;;;;;;;;;5045419;28;20477;-55
2023/12/11 21:07:06;;;;;;;187.18;84.05;;;;;;;;;;5046113;28;20545;-56
2023/12/11 21:09:34;;;;;;;180.13;80.93;;;;;;;;;;5046656;28;20041;-56
2023/12/11 21:12:01;;;;;;;179.40;80.65;;;;;;;;;;5046394;28;20033;-56
2023/12/11 21:14:29;;;;;;;174.30;80.78;;;;;;;;;;5028699;28;20490;-56
2023/12/11 21:16:57;;;;;;;176.70;81.57;;;;;;;;;;5024551;28;20044;-55
2023/12/11 21:19:24;;;;;;;175.60;77.97;;;;;;;;;;5035444;28;20052;-57
2023/12/11 21:21:52;;;;;;;163.50;76.78;;;;;;;;;;5028687;28;20047;-57
2023/12/11 21:24:19;;;;;;;164.23;77.07;;;;;;;;;;5048672;28;20755;-55
2023/12/11 21:26:47;;;;;;;169.20;77.45;;;;;;;;;;5050153;28;20111;-54
2023/12/11 21:29:15;;;;;;;168.50;74.93;;;;;;;;;;5047997;28;20077;-56
2023/12/11 21:31:42;;;;;;;158.77;73.07;;;;;;;;;;5054458;28;20091;-53
2023/12/11 21:34:10;;;;;;;154.65;76.90;;;;;;;;;;5054476;28;20040;-54
2023/12/11 21:36:37;;;;;;;167.70;80.28;;;;;;;;;;5054140;28;20102;-56
2023/12/11 21:39:05;;;;;;;159.13;78.78;;;;;;;;;;5055780;28;20044;-56
2023/12/11 21:41:33;;;;;;;152.57;74.82;;;;;;;;;;5037581;28;20041;-55
2023/12/11 21:44:00;;;;;;;160.90;81.53;;;;;;;;;;5055124;28;20037;-56
2023/12/11 21:46:28;;;;;;;161.85;76.80;;;;;;;;;;5055193;28;20043;-55
2023/12/11 21:48:57;;;;;;;157.23;76.57;;;;;;;;;;5055384;28;20044;-55
2023/12/11 21:51:29;;;;;;;152.98;72.82;;;;;;;;;;5055065;28;20604;-55
2023/12/11 21:53:56;;;;;;;151.73;73.05;;;;;;;;;;5054991;28;20441;-55
2023/12/11 21:56:24;;;;;;;151.38;74.38;;;;;;;;;;5055001;28;20448;-54
2023/12/11 21:58:53;;;;;;;143.10;72.63;;;;;;;;;;5054925;28;20044;-55
2023/12/11 22:01:20;;;;;;;142.48;70.07;;;;;;;;;;5055154;28;20395;-55
2023/12/11 22:03:48;;;;;;;144.43;70.22;;;;;;;;;;5036774;28;20099;-56
2023/12/11 22:06:17;;;;;;;140.15;70.68;;;;;;;;;;5054234;28;20640;-55
2023/12/11 22:08:45;;;;;;;140.77;72.22;;;;;;;;;;5054913;28;20410;-55
2023/12/11 22:11:15;;;;;;;144.02;73.05;;;;;;;;;;5054507;28;20041;-56
2023/12/11 22:13:48;;;;;;;144.40;71.20;;;;;;;;;;5054518;28;20037;-55
2023/12/11 22:16:15;;;;;;;141.05;70.60;;;;;;;;;;5054710;28;20438;-57
2023/12/11 22:18:46;;;;;;;128.18;67.05;;;;;;;;;;5054677;28;20071;-54
2023/12/11 22:21:21;;;;;;;132.77;68.53;;;;;;;;;;5054709;28;20131;-55
2023/12/11 22:23:49;;;;;;;129.93;69.20;;;;;;;;;;5054652;28;20487;-55
2023/12/11 22:26:17;;;;;;;123.20;65.53;;;;;;;;;;5054602;28;20288;-55
2023/12/11 22:28:44;;;;;;;138.95;67.63;;;;;;;;;;5054570;28;20095;-55
2023/12/11 22:31:12;;;;;;;132.32;66.40;;;;;;;;;;5054231;28;20049;-54
2023/12/11 22:33:40;;;;;;;125.20;64.45;;;;;;;;;;5054007;28;20045;-53
2023/12/11 22:36:07;;;;;;;131.05;64.97;;;;;;;;;;5054130;28;20037;-55
2023/12/11 22:38:35;;;;;;;122.70;63.33;;;;;;;;;;5054292;28;20049;-54
2023/12/11 22:41:03;;;;;;;121.97;65.80;;;;;;;;;;5054247;28;20035;-53
2023/12/11 22:43:30;;;;;;;125.30;62.60;;;;;;;;;;5054107;28;20069;-56
2023/12/11 22:45:58;;;;;;;117.85;61.38;;;;;;;;;;5053998;28;20051;-56
2023/12/11 22:48:26;;;;;;;133.15;69.05;;;;;;;;;;5054140;28;20457;-54
2023/12/11 22:50:54;;;;;;;135.05;70.68;;;;;;;;;;5054025;28;20095;-55
2023/12/11 22:53:21;;;;;;;137.80;72.60;;;;;;;;;;5054153;28;20061;-54
2023/12/11 22:55:49;;;;;;;126.82;67.63;;;;;;;;;;5053887;28;20080;-54
2023/12/11 22:58:17;;;;;;;120.60;63.85;;;;;;;;;;5054145;28;20052;-55
2023/12/11 23:00:44;;;;;;;119.15;59.47;;;;;;;;;;5053801;28;20053;-54
2023/12/11 23:03:12;;;;;;;111.72;55.35;;;;;;;;;;5053637;28;20045;-56
2023/12/11 23:05:39;;;;;;;100.95;50.92;;;;;;;;;;5053745;28;20052;-54
2023/12/11 23:08:07;;;;;;;110.55;52.85;;;;;;;;;;5053423;28;20548;-54
2023/12/11 23:10:35;;;;;;;104.22;52.45;;;;;;;;;;5053517;28;20047;-55
2023/12/11 23:13:02;;;;;;;112.25;52.03;;;;;;;;;;5053566;28;20080;-54
2023/12/11 23:15:30;;;;;;;102.72;51.25;;;;;;;;;;5053448;28;20064;-54
2023/12/11 23:17:58;;;;;;;106.93;50.80;;;;;;;;;;5053477;28;20072;-55
2023/12/11 23:20:25;;;;;;;101.70;49.00;;;;;;;;;;5053391;28;20071;-55
2023/12/11 23:22:56;;;;;;;104.53;50.17;;;;;;;;;;5053352;28;20037;-55
2023/12/11 23:25:23;;;;;;;101.80;50.22;;;;;;;;;;5035708;28;20045;-55
2023/12/11 23:27:51;;;;;;;104.35;50.58;;;;;;;;;;5053044;28;20041;-55
2023/12/11 23:30:19;;;;;;;114.05;52.25;;;;;;;;;;5053203;28;20052;-54
2023/12/11 23:32:46;;;;;;;103.25;50.53;;;;;;;;;;5053334;28;20045;-57
2023/12/11 23:35:14;;;;;;;109.68;54.63;;;;;;;;;;5053166;28;20132;-54
2023/12/11 23:37:42;;;;;;;114.18;55.20;;;;;;;;;;5053409;28;20041;-55
2023/12/11 23:40:10;;;;;;;114.88;53.92;;;;;;;;;;5053124;28;20048;-55
2023/12/11 23:42:37;;;;;;;110.32;53.03;;;;;;;;;;5053024;28;20039;-56
2023/12/11 23:45:05;;;;;;;110.25;53.03;;;;;;;;;;5035418;28;20037;-55
2023/12/11 23:47:33;;;;;;;94.60;47.33;;;;;;;;;;5052373;28;20041;-55
2023/12/11 23:50:02;;;;;;;101.57;46.90;;;;;;;;;;5052850;28;20048;-54
2023/12/11 23:52:29;;;;;;;87.15;42.90;;;;;;;;;;5052995;28;20037;-55
2023/12/11 23:54:57;;;;;;;87.20;43.95;;;;;;;;;;5052897;28;20037;-54
2023/12/11 23:57:24;;;;;;;88.63;40.85;;;;;;;;;;5035393;28;20056;-55
2023/12/11 23:59:52;;;;;;;85.40;40.90;;;;;;;;;;5034735;28;20136;-54
